Crested Butte So, Colorado
Current Conditions -  °F | °C
As of 8:53 PM on Saturday 25 Oct 2014 (Local Time) from KASE Reporting Station
Clear Clear  
Wind Chill: 45°   Ceiling: Unl
Heat Index: 48°   Visibility: 10mi
Dew Point: 27°   Wind: 6mph
Humidity: 44%   Direction: 190°S
Pressure: 30.23"   Gusts: NA
Location:  38.8977°N, 106.967°W
Report Text: KASE 260253Z AUTO 19005KT 10SM CLR 09/M03 A3023 RMK AO2 SLP169 T00891028 50003
Loading
Personal Weather Stations






























Interactive Weather Map
Tropical Storm Tracking
New forecast layout! Learn more

10-Day Weather Forecast

Advertisements
Track Severe Weather on mobile